Meath Environmental Platform

Observations for Trim Patrick St

Time AQI Temp °C Hum % Pres Pa CO μg/m³ H₂S μg/m³ NO μg/m³ NO₂ μg/m³ O₃ μg/m³ SO₂ μg/m³ PM1 μg/m³ PM2.5 μg/m³ PM10 μg/m³
Thursday 27 August 2026
02:54 2 15.6 89 38,377 0.22 2.86 1.62 27.58 32.94 0 20.86 26.48 29.13
02:53 2 15.6 89 38,378 0.21 2.31 1.6 17.82 36.21 0 19.14 25.1 27.61
02:52 2 15.6 89 38,380 0.22 1.24 1.57 20.99 30.12 0 18.29 23.75 26.13
02:51 2 15.6 89 38,382 0.22 3.9 1.75 26.87 35.15 0 18.29 25.8 28.38
02:50 2 15.6 89 38,385 0.21 2.08 1.64 17.03 31.17 0 19.14 24.44 26.88
02:49 2 15.6 89 38,389 0.21 3.62 1.43 21.92 28.7 0 18.29 24.44 26.88
02:48 2 15.6 89 38,394 0.21 3.98 1.66 31.34 35.63 0 20 25.8 28.38
02:47 2 15.6 88 38,401 0.21 2.89 1.46 15.79 32.99 0 18.29 24.47 26.92
02:46 2 15.6 88 38,410 0.21 3.69 1.57 31.68 31.5 0 21.72 27.9 28.19
02:45 2 15.6 88 38,422 0.21 2.65 1.77 22.04 32.84 0 18.29 25.17 27.69
02:44 2 15.6 88 38,439 0.2 2.44 1.88 20.24 31.09 0 20 25.17 27.69
02:43 2 15.6 88 38,459 0.21 4.68 1.8 20.76 31.05 0 18.29 24.52 26.98
02:42 2 15.5 87 38,459 0.2 4.4 1.8 31.94 37.2 0 18.29 23.23 25.55
02:41 2 15.6 88 38,459 0.2 2.08 1.82 16.75 33.47 0 18.29 25.17 27.69
02:40 2 15.6 88 38,459 0.2 4.81 1.64 24.34 31.25 0 20 25.17 27.69
02:39 2 15.5 88 38,459 0.2 5.1 1.59 30.04 35.85 0 18.29 26.55 29.2
02:37 2 15.5 88 38,459 0.22 0.78 1.9 19.28 29.13 0 19.14 25.21 27.73
02:36 2 15.5 88 38,459 0.21 0.78 1.82 16.2 35.68 0 19.14 24.54 26.99
02:35 2 15.5 88 38,459 0.22 1.11 1.79 16.41 31.24 0 20.86 26.59 29.25
02:34 2 15.5 88 38,459 0.21 0.07 1.85 17.31 27.02 0 20 25.22 27.74